Impacts TAF Board
For situational awareness. Not to be used for flight planning purposes.
IDs:

KEGE - Eagle Cnty Rgnl, CO, US

Issued at 1122 UTC 15 Jul 2020
Updated at 1253 UTC 15 Jul 2020
Potential Impact None Slight Moderate High
Time1156Z 15/13Z 15/14Z 15/15Z 15/16Z 15/17Z 15/18Z 15/19Z 15/20Z 15/21Z 15/22Z 15/23Z 16/00Z 16/01Z>>
Type OBS PRVL PRVL PRVL PRVL PRVL PRVL PRVL PRVL PRVL PRVL PRVL PRVL PRVL
VIS 10 >6 >6 >6 >6 >6 >6 >6 >6 >6 >6 >6 >6 >6
CIG -- -- -- -- -- -- -- -- -- -- -- -- -- --
Cover CLR SCT SCT SCT SCT SCT SCT SCT SCT SCT SCT SCT SCT SCT
FltCat VFR VFR VFR VFR VFR VFR VFR VFR VFR VFR VFR VFR VFR VFR
WX -- VCSH VCSH VCSH VCSH VCSH VCSH -- -- -- -- -- -- --
WDir VRB 130 130 130 130 130 130 240 240 240 240 240 240 240
WSpd 3 5 5 5 5 5 5 9 9 16 16 16 16 16
WGst -- -- -- -- -- -- -- -- -- 24 24 24 24 24
Raw TAF
KEGE 151122Z 1512/1612 13005KT P6SM VCSH SCT120 SCT180
  FM151900 24009KT P6SM SCT250
  FM152100 24016G24KT P6SM FEW110 SCT250
  FM160200 20006KT P6SM FEW120 FEW250
  FM160600 09003KT P6SM SCT250


Raw METAR
KEGE 151156Z AUTO VRB03KT 10SM CLR 11/09 A3031 RMK AO2 RAE05 SLP200 6//// 7//// T01110094 10156 20106 51012 PNO $
KEGE 151056Z AUTO 13006KT 10SM -RA SCT120 11/09 A3030 RMK AO2 RAB52 SLP193 T01110094 PNO $
KEGE 150956Z AUTO 09005KT 10SM CLR 12/10 A3028 RMK AO2 SLP183 T01170100 PNO $

METAR Board
Radar Display
Forecast Discussion
For situational awareness. Not to be used for flight planning purposes.